Castle Point, New York
Current Conditions -  °F | °C
As of 2:53 PM on Friday 28 Nov 2014 (Local Time) from KPOU Reporting Station
Overcast Overcast  
Wind Chill: 25°   Ceiling: 4900
Heat Index: 33°   Visibility: 10mi
Dew Point: 17°   Wind: 9mph
Humidity: 52%   Direction: 290°WNW
Pressure: 30.16"   Gusts: 21mph
Location:  41.55°N, 73.96°W
Report Text: KPOU 281953Z 29008G18KT 10SM OVC049 01/M08 A3016 RMK AO2 SLP213 T00061083
Loading
Personal Weather Stations






























Interactive Weather Map New forecast layout! Learn more

10-Day Weather Forecast

Advertisements
Track Severe Weather on mobile